createdAt,value
2023-01-13T00:01:43.474Z,96.63
2023-01-13T00:04:11.584Z,96.23
2023-01-13T00:06:38.058Z,97.47
2023-01-13T00:09:04.556Z,98.23
2023-01-13T00:11:31.026Z,98.64
2023-01-13T00:13:57.491Z,97.44
2023-01-13T00:16:23.961Z,97.77
2023-01-13T00:18:50.387Z,97.95
2023-01-13T00:21:19.821Z,95.20
2023-01-13T00:23:46.783Z,93.22
2023-01-13T00:26:15.385Z,92.64
2023-01-13T00:28:41.961Z,91.65
2023-01-13T00:31:10.604Z,92.86
2023-01-13T00:33:37.459Z,92.96
2023-01-13T00:36:05.715Z,92.83
2023-01-13T00:38:35.273Z,92.63
2023-01-13T00:41:04.592Z,93.43
2023-01-13T00:43:32.512Z,93.70
2023-01-13T00:45:59.261Z,93.66
2023-01-13T00:48:26.791Z,93.95
2023-01-13T00:50:57.100Z,93.97
2023-01-13T00:53:23.663Z,94.24
2023-01-13T00:55:58.747Z,93.36
2023-01-13T00:58:25.246Z,92.73
2023-01-13T01:00:51.889Z,92.10
2023-01-13T01:03:18.430Z,91.56
2023-01-13T01:05:44.878Z,89.74
2023-01-13T01:08:11.393Z,87.83
2023-01-13T01:10:37.815Z,86.04
2023-01-13T01:13:05.624Z,86.49
2023-01-13T01:15:32.111Z,86.46
2023-01-13T01:17:58.546Z,85.35
2023-01-13T01:20:25.051Z,85.14
2023-01-13T01:22:51.535Z,84.09
2023-01-13T01:25:17.965Z,83.93
2023-01-13T01:27:44.449Z,79.11
2023-01-13T01:30:13.692Z,79.12
2023-01-13T01:32:40.184Z,78.06
2023-01-13T01:35:07.225Z,76.95
2023-01-13T01:37:33.665Z,76.26
2023-01-13T01:40:00.165Z,78.04
2023-01-13T01:42:26.628Z,77.93
2023-01-13T01:44:59.355Z,77.15
2023-01-13T01:47:30.424Z,77.39
2023-01-13T01:49:58.528Z,78.12
2023-01-13T01:52:31.097Z,77.54
2023-01-13T01:55:01.520Z,80.15
2023-01-13T01:57:32.594Z,79.84
2023-01-13T02:00:00.146Z,80.77
2023-01-13T02:02:28.560Z,80.86
2023-01-13T02:04:55.829Z,79.60
2023-01-13T02:07:24.959Z,78.91
2023-01-13T02:09:52.747Z,78.82
2023-01-13T02:12:19.374Z,80.04
2023-01-13T02:14:46.545Z,79.16
2023-01-13T02:17:31.408Z,79.92
2023-01-13T02:20:24.317Z,79.87
2023-01-13T02:23:18.604Z,78.77
2023-01-13T02:26:05.812Z,80.26
2023-01-13T02:28:53.809Z,79.83
2023-01-13T02:31:21.883Z,80.27
2023-01-13T02:34:02.402Z,81.10
2023-01-13T02:36:38.096Z,81.32
2023-01-13T02:39:12.439Z,80.06
2023-01-13T02:41:46.172Z,80.48
2023-01-13T02:44:20.182Z,80.24
2023-01-13T02:46:55.819Z,80.30
2023-01-13T02:49:28.285Z,80.39
2023-01-13T02:52:01.842Z,80.60
2023-01-13T02:54:30.394Z,80.72
2023-01-13T02:56:59.140Z,80.18
2023-01-13T02:59:27.845Z,79.94
2023-01-13T03:01:57.029Z,80.20
2023-01-13T03:04:45.014Z,80.91
2023-01-13T03:07:18.557Z,80.27
2023-01-13T03:09:55.299Z,80.54
2023-01-13T03:12:33.477Z,79.81
2023-01-13T03:15:10.135Z,78.39
2023-01-13T03:17:43.848Z,79.50
2023-01-13T03:20:17.782Z,78.61
2023-01-13T03:22:50.763Z,78.98
2023-01-13T03:25:22.631Z,79.12
2023-01-13T03:27:55.565Z,79.05
2023-01-13T03:30:27.100Z,79.48
2023-01-13T03:32:59.540Z,80.12
2023-01-13T03:35:31.159Z,79.93
2023-01-13T03:38:02.675Z,80.33
2023-01-13T03:40:33.250Z,79.77
2023-01-13T03:43:05.323Z,78.83
2023-01-13T03:45:34.705Z,79.66
2023-01-13T03:48:08.629Z,80.00
2023-01-13T03:50:40.935Z,79.42
2023-01-13T03:53:11.121Z,78.99
2023-01-13T03:55:42.033Z,79.21
2023-01-13T03:58:13.698Z,80.23
2023-01-13T04:00:46.739Z,78.65
2023-01-13T04:03:20.311Z,78.48
2023-01-13T04:05:54.546Z,79.65
2023-01-13T04:08:24.365Z,78.41
2023-01-13T04:10:55.658Z,79.52
2023-01-13T04:13:25.978Z,79.92
2023-01-13T04:15:52.597Z,80.03
2023-01-13T04:18:26.115Z,79.04
2023-01-13T04:20:59.939Z,79.47
2023-01-13T04:23:27.361Z,80.40
2023-01-13T04:25:54.660Z,80.45
2023-01-13T04:28:21.493Z,79.72
2023-01-13T04:30:48.779Z,79.88
2023-01-13T04:33:16.837Z,80.39
2023-01-13T04:35:46.798Z,80.62
2023-01-13T04:38:14.954Z,79.84
2023-01-13T04:40:42.167Z,80.07
2023-01-13T04:43:08.839Z,80.73
2023-01-13T04:45:35.609Z,81.12
2023-01-13T04:48:02.418Z,80.50
2023-01-13T04:50:29.133Z,80.80
2023-01-13T04:52:57.068Z,80.83
2023-01-13T04:55:24.599Z,79.92
2023-01-13T04:57:51.182Z,79.75
2023-01-13T05:00:20.259Z,80.21
2023-01-13T05:02:48.777Z,79.43
2023-01-13T05:05:15.573Z,80.55
2023-01-13T05:07:42.041Z,79.59
2023-01-13T05:10:11.195Z,78.79
2023-01-13T05:12:37.505Z,79.71
2023-01-13T05:15:04.921Z,79.77
2023-01-13T05:17:32.117Z,79.50
2023-01-13T05:19:58.542Z,79.93
2023-01-13T05:22:25.078Z,79.76
2023-01-13T05:24:51.556Z,79.34
2023-01-13T05:27:19.503Z,79.59
2023-01-13T05:29:46.019Z,79.43
2023-01-13T05:32:12.492Z,81.13
2023-01-13T05:34:38.957Z,79.89
2023-01-13T05:37:05.449Z,79.93
2023-01-13T05:39:31.934Z,80.41
2023-01-13T05:41:58.523Z,79.60
2023-01-13T05:44:26.620Z,79.06
2023-01-13T05:46:53.225Z,79.18
2023-01-13T05:49:19.699Z,78.53
2023-01-13T05:51:46.164Z,78.65
2023-01-13T05:54:12.711Z,78.56
2023-01-13T05:56:39.200Z,78.72
2023-01-13T05:59:05.692Z,78.24
2023-01-13T06:01:33.556Z,79.70
2023-01-13T06:04:00.193Z,79.10
2023-01-13T06:06:26.716Z,78.32
2023-01-13T06:08:53.223Z,78.81
2023-01-13T06:11:19.675Z,78.78
2023-01-13T06:13:46.172Z,78.61
2023-01-13T06:16:12.920Z,78.00
2023-01-13T06:18:40.764Z,79.44
2023-01-13T06:21:07.257Z,77.81
2023-01-13T06:23:33.779Z,78.37
2023-01-13T06:26:05.348Z,78.86
2023-01-13T06:28:31.874Z,77.72
2023-01-13T06:31:03.267Z,78.76
2023-01-13T06:33:35.367Z,78.41
2023-01-13T06:36:07.171Z,78.32
2023-01-13T06:38:38.358Z,78.18
2023-01-13T06:41:07.282Z,78.42
2023-01-13T06:43:33.858Z,78.12
2023-01-13T06:46:01.345Z,77.98
2023-01-13T06:48:31.039Z,77.68
2023-01-13T06:50:57.536Z,78.51
2023-01-13T06:53:25.528Z,79.36
2023-01-13T06:55:52.041Z,78.69
2023-01-13T06:58:18.536Z,78.20
2023-01-13T07:00:45.127Z,78.18
2023-01-13T07:03:14.522Z,78.67
2023-01-13T07:05:50.876Z,76.30
2023-01-13T07:08:17.635Z,77.26
2023-01-13T07:10:45.475Z,76.98
2023-01-13T07:13:11.933Z,77.72
2023-01-13T07:15:38.361Z,77.42
2023-01-13T07:18:05.161Z,77.54
2023-01-13T07:20:31.848Z,77.32
2023-01-13T07:22:58.352Z,78.31
2023-01-13T07:25:25.005Z,77.34
2023-01-13T07:27:52.930Z,77.70
2023-01-13T07:30:19.468Z,78.52
2023-01-13T07:32:46.076Z,78.87
2023-01-13T07:35:12.588Z,77.65
2023-01-13T07:37:39.355Z,79.15
2023-01-13T07:40:07.316Z,77.71
2023-01-13T07:42:33.857Z,78.46
2023-01-13T07:45:01.891Z,79.10
2023-01-13T07:47:28.400Z,79.79
2023-01-13T07:49:55.028Z,78.75
2023-01-13T07:52:21.481Z,78.90
2023-01-13T07:54:47.923Z,78.78
2023-01-13T07:57:14.402Z,79.94
2023-01-13T07:59:40.921Z,79.26
2023-01-13T08:02:11.612Z,79.35
2023-01-13T08:04:38.365Z,79.77
2023-01-13T08:07:05.588Z,79.13
2023-01-13T08:09:32.421Z,78.51
2023-01-13T08:11:59.042Z,79.67
2023-01-13T08:14:25.647Z,79.42
2023-01-13T08:16:52.139Z,79.24
2023-01-13T08:19:19.974Z,78.71
2023-01-13T08:21:46.489Z,79.05
2023-01-13T08:24:13.163Z,78.35
2023-01-13T08:26:39.620Z,78.38
2023-01-13T08:29:06.126Z,76.84
2023-01-13T08:31:32.624Z,77.53
2023-01-13T08:33:59.225Z,75.55
2023-01-13T08:36:27.232Z,74.68
2023-01-13T08:38:53.993Z,76.33
2023-01-13T08:41:20.492Z,77.60
2023-01-13T08:43:47.754Z,77.12
2023-01-13T08:46:14.375Z,77.41
2023-01-13T08:48:40.875Z,77.44
2023-01-13T08:51:11.281Z,77.13
2023-01-13T08:53:39.196Z,77.78
2023-01-13T08:56:07.785Z,75.74
2023-01-13T08:58:34.335Z,76.25
2023-01-13T09:01:04.756Z,76.86
2023-01-13T09:03:31.422Z,75.71
2023-01-13T09:05:58.030Z,75.37
2023-01-13T09:08:24.685Z,74.50
2023-01-13T09:10:52.705Z,74.05
2023-01-13T09:13:19.462Z,73.62
2023-01-13T09:15:46.307Z,73.34
2023-01-13T09:18:13.216Z,73.96
2023-01-13T09:20:43.420Z,74.08
2023-01-13T09:23:11.524Z,72.95
2023-01-13T09:25:38.622Z,71.32
2023-01-13T09:28:06.670Z,70.27
2023-01-13T09:30:33.170Z,70.46
2023-01-13T09:32:59.881Z,70.77
2023-01-13T09:35:26.453Z,70.71
2023-01-13T09:37:53.881Z,70.41
2023-01-13T09:40:20.910Z,70.43
2023-01-13T09:42:54.592Z,69.01
2023-01-13T09:45:27.354Z,69.05
2023-01-13T09:48:01.565Z,69.31
2023-01-13T09:50:57.633Z,69.93
2023-01-13T09:53:28.584Z,70.35
2023-01-13T09:55:55.634Z,70.06
2023-01-13T09:58:22.234Z,71.37
2023-01-13T10:01:00.654Z,71.68
2023-01-13T10:03:29.386Z,70.30
2023-01-13T10:06:01.799Z,70.56
2023-01-13T10:08:30.293Z,71.12
2023-01-13T10:10:59.469Z,70.30
2023-01-13T10:13:26.453Z,70.41
2023-01-13T10:16:07.885Z,69.15
2023-01-13T10:24:33.629Z,66.81
2023-01-13T10:27:04.162Z,66.04
2023-01-13T10:29:31.875Z,63.73
2023-01-13T10:32:00.433Z,63.76
2023-01-13T10:34:28.758Z,66.36
2023-01-13T10:36:57.972Z,67.06
2023-01-13T10:39:25.411Z,68.54
2023-01-13T10:42:01.682Z,67.61
2023-01-13T10:44:28.311Z,68.49
2023-01-13T10:46:56.427Z,68.64
2023-01-13T10:49:30.392Z,68.39
2023-01-13T10:51:57.050Z,68.95
2023-01-13T10:54:25.706Z,68.41
2023-01-13T10:57:13.164Z,69.12
2023-01-13T10:59:39.808Z,68.99
2023-01-13T11:02:25.690Z,68.70
2023-01-13T11:05:16.176Z,69.13
2023-01-13T11:07:47.531Z,68.06
2023-01-13T11:10:22.199Z,69.30
2023-01-13T11:12:58.075Z,68.40
2023-01-13T11:15:36.372Z,69.28
2023-01-13T11:18:08.027Z,68.12
2023-01-13T11:20:39.997Z,68.03
2023-01-13T11:23:15.355Z,68.13
2023-01-13T11:25:45.296Z,67.97
2023-01-13T11:28:24.928Z,67.74
2023-01-13T11:30:57.758Z,68.46
2023-01-13T11:33:36.647Z,67.91
2023-01-13T11:36:10.848Z,67.74
2023-01-13T11:38:50.880Z,67.64
2023-01-13T11:41:28.530Z,67.42
2023-01-13T11:44:03.995Z,67.85
2023-01-13T11:46:30.669Z,67.59
2023-01-13T11:48:57.276Z,66.55
2023-01-13T11:51:33.253Z,67.21
2023-01-13T11:54:32.586Z,67.14
2023-01-13T11:57:24.162Z,67.84
2023-01-13T12:00:14.667Z,67.37
2023-01-13T12:02:55.591Z,67.34
2023-01-13T12:05:30.977Z,66.71
2023-01-13T12:08:15.900Z,66.44
2023-01-13T12:10:58.230Z,67.69
2023-01-13T12:13:35.724Z,66.43
2023-01-13T12:16:25.202Z,66.76
2023-01-13T12:19:10.645Z,66.96
2023-01-13T12:21:40.947Z,66.96
2023-01-13T12:24:20.832Z,66.68
2023-01-13T12:26:55.650Z,67.36
2023-01-13T12:29:30.567Z,67.82
2023-01-13T12:32:00.179Z,67.92
2023-01-13T12:34:35.867Z,68.80
2023-01-13T12:37:12.128Z,69.51
2023-01-13T12:39:50.504Z,69.08
2023-01-13T12:42:21.684Z,70.60
2023-01-13T12:45:21.443Z,72.03
2023-01-13T12:47:48.251Z,72.70
2023-01-13T12:50:40.731Z,74.56
2023-01-13T12:53:33.915Z,76.08
2023-01-13T12:56:34.237Z,79.18
2023-01-13T12:59:38.013Z,81.64
2023-01-13T13:02:27.045Z,84.45
2023-01-13T13:04:56.130Z,85.03
2023-01-13T13:07:32.577Z,84.88
2023-01-13T13:10:02.574Z,85.80
2023-01-13T13:12:53.254Z,84.41
2023-01-13T13:15:21.956Z,85.27
2023-01-13T13:18:05.918Z,86.86
2023-01-13T13:21:03.980Z,87.34
2023-01-13T13:24:10.219Z,87.39
2023-01-13T13:26:39.707Z,86.17
2023-01-13T13:29:26.098Z,88.28
2023-01-13T13:32:13.191Z,87.48
2023-01-13T13:34:49.057Z,87.54
2023-01-13T13:37:31.680Z,87.43
2023-01-13T13:39:58.401Z,88.99
2023-01-13T13:42:26.984Z,89.11
2023-01-13T13:44:56.183Z,89.66
2023-01-13T13:47:22.550Z,87.74
2023-01-13T13:49:51.142Z,86.31
2023-01-13T13:52:21.728Z,85.96
2023-01-13T13:54:52.462Z,84.92
2023-01-13T13:57:22.397Z,85.51
2023-01-13T13:59:53.839Z,84.96
2023-01-13T14:02:27.562Z,85.79
2023-01-13T14:05:08.671Z,86.24
2023-01-13T14:07:42.455Z,85.57
2023-01-13T14:10:16.192Z,85.51
2023-01-13T14:12:42.735Z,84.93
2023-01-13T14:15:27.581Z,85.29
2023-01-13T14:17:55.489Z,84.67
2023-01-13T14:20:23.832Z,85.02
2023-01-13T14:22:53.148Z,84.83
2023-01-13T14:25:35.390Z,83.49
2023-01-13T14:28:20.375Z,84.00
2023-01-13T14:30:47.691Z,83.88
2023-01-13T14:33:18.085Z,82.48
2023-01-13T14:36:04.213Z,82.95
2023-01-13T14:38:30.783Z,81.95
2023-01-13T14:40:57.472Z,81.93
2023-01-13T14:43:25.635Z,82.61
2023-01-13T14:45:57.348Z,82.43
2023-01-13T14:48:30.511Z,82.51
2023-01-13T14:50:57.047Z,82.40
2023-01-13T14:53:29.642Z,83.57
2023-01-13T14:55:56.159Z,84.58
2023-01-13T14:58:25.308Z,84.75
2023-01-13T15:00:52.205Z,85.95
2023-01-13T15:03:21.015Z,85.48
2023-01-13T15:05:51.090Z,85.25
2023-01-13T15:08:30.990Z,85.55
2023-01-13T15:10:59.459Z,86.40
2023-01-13T15:13:31.287Z,86.09
2023-01-13T15:15:59.618Z,86.79
2023-01-13T15:18:26.361Z,86.20
2023-01-13T15:20:55.270Z,85.86
2023-01-13T15:23:22.116Z,84.35
2023-01-13T15:25:48.893Z,85.44
2023-01-13T15:28:18.270Z,84.96
2023-01-13T15:30:45.085Z,83.70
2023-01-13T15:33:13.586Z,85.29
2023-01-13T15:35:44.905Z,84.66
2023-01-13T15:38:14.126Z,85.18
2023-01-13T15:40:41.002Z,85.37
2023-01-13T15:43:13.210Z,87.17
2023-01-13T15:45:40.912Z,87.18
2023-01-13T15:48:07.423Z,88.04
2023-01-13T15:50:33.877Z,89.32
2023-01-13T15:53:00.345Z,89.03
2023-01-13T15:55:28.224Z,88.42
2023-01-13T15:57:54.975Z,89.66
2023-01-13T16:00:22.471Z,89.59
2023-01-13T16:02:49.830Z,88.83
2023-01-13T16:05:16.744Z,90.23
2023-01-13T16:07:43.554Z,89.88
2023-01-13T16:10:18.699Z,88.77
2023-01-13T16:12:46.660Z,87.68
2023-01-13T16:15:13.759Z,88.23
2023-01-13T16:17:40.593Z,87.63
2023-01-13T16:20:13.165Z,86.28
2023-01-13T16:22:39.741Z,86.51
2023-01-13T16:25:07.167Z,85.62
2023-01-13T16:27:33.600Z,86.74
2023-01-13T16:30:01.485Z,84.81
2023-01-13T16:32:27.988Z,86.24
2023-01-13T16:34:54.591Z,85.64
2023-01-13T16:37:22.399Z,85.64
2023-01-13T16:39:49.789Z,84.46
2023-01-13T16:42:16.316Z,84.79
2023-01-13T16:44:42.931Z,84.69
2023-01-13T16:47:14.273Z,83.36
2023-01-13T16:49:40.891Z,84.14
2023-01-13T16:52:07.415Z,83.26
2023-01-13T16:54:34.146Z,82.90
2023-01-13T16:57:00.678Z,82.29
2023-01-13T16:59:27.180Z,82.05
2023-01-13T17:01:53.763Z,82.78
2023-01-13T17:04:22.484Z,81.79
2023-01-13T17:06:54.084Z,81.78
2023-01-13T17:09:23.226Z,81.92
2023-01-13T17:11:49.579Z,81.67
2023-01-13T17:14:19.004Z,82.56
2023-01-13T17:16:46.346Z,82.36
2023-01-13T17:19:13.425Z,83.94
2023-01-13T17:21:41.339Z,83.23
2023-01-13T17:24:08.431Z,84.39
2023-01-13T17:26:36.571Z,83.65
2023-01-13T17:29:04.935Z,83.93
2023-01-13T17:31:31.633Z,82.79
2023-01-13T17:33:58.226Z,81.86
2023-01-13T17:36:24.856Z,81.83
2023-01-13T17:38:55.113Z,82.48
2023-01-13T17:41:21.669Z,80.76
2023-01-13T17:43:48.332Z,80.12
2023-01-13T17:46:15.761Z,80.61
2023-01-13T17:48:42.174Z,80.79
2023-01-13T17:51:12.144Z,80.13
2023-01-13T17:53:38.739Z,79.09
2023-01-13T17:56:08.468Z,79.19
2023-01-13T17:58:35.449Z,79.58
2023-01-13T18:01:07.343Z,79.42
2023-01-13T18:03:34.180Z,78.83
2023-01-13T18:06:03.156Z,80.63
2023-01-13T18:08:29.744Z,79.53
2023-01-13T18:10:56.419Z,79.87
2023-01-13T18:13:24.397Z,78.68
2023-01-13T18:15:59.398Z,78.72
2023-01-13T18:18:25.891Z,77.89
2023-01-13T18:20:53.274Z,77.44
2023-01-13T18:23:21.264Z,77.47
2023-01-13T18:25:47.796Z,77.78
2023-01-13T18:28:14.272Z,78.08
2023-01-13T18:30:42.076Z,78.59
2023-01-13T18:33:08.532Z,78.42
2023-01-13T18:35:38.102Z,78.28
2023-01-13T18:38:04.617Z,78.80
2023-01-13T18:40:31.120Z,77.31
2023-01-13T18:42:57.652Z,78.81
2023-01-13T18:45:26.102Z,78.43
2023-01-13T18:47:56.012Z,77.71
2023-01-13T18:50:22.565Z,77.70
2023-01-13T18:52:49.276Z,77.54
2023-01-13T18:55:15.968Z,77.73
2023-01-13T18:57:42.411Z,77.87
2023-01-13T19:00:11.604Z,78.17
2023-01-13T19:02:38.270Z,77.96
2023-01-13T19:05:07.128Z,77.46
2023-01-13T19:07:33.641Z,77.26
2023-01-13T19:10:00.134Z,76.62
2023-01-13T19:12:27.265Z,78.00
2023-01-13T19:14:54.733Z,77.10
2023-01-13T19:17:22.272Z,77.44
2023-01-13T19:19:50.478Z,77.16
2023-01-13T19:22:20.219Z,77.74
2023-01-13T19:24:46.643Z,77.31
2023-01-13T19:27:14.756Z,76.69
2023-01-13T19:29:52.645Z,76.63
2023-01-13T19:32:20.698Z,77.76
2023-01-13T19:34:48.896Z,77.88
2023-01-13T19:37:15.391Z,77.88
2023-01-13T19:39:43.285Z,77.54
2023-01-13T19:42:10.704Z,77.95
2023-01-13T19:44:37.220Z,77.44
2023-01-13T19:47:03.800Z,76.96
2023-01-13T19:49:30.259Z,77.62
2023-01-13T19:51:56.681Z,78.07
2023-01-13T19:54:23.197Z,76.64
2023-01-13T19:56:51.647Z,78.97
2023-01-13T19:59:18.142Z,77.63
2023-01-13T20:01:44.783Z,78.50
2023-01-13T20:04:11.235Z,78.85
2023-01-13T20:06:37.690Z,78.37
2023-01-13T20:09:04.138Z,78.29
2023-01-13T20:11:30.575Z,77.88
2023-01-13T20:13:59.516Z,78.40
2023-01-13T20:16:26.299Z,78.25
2023-01-13T20:18:52.762Z,78.58
2023-01-13T20:21:19.717Z,79.07
2023-01-13T20:23:49.136Z,78.10
2023-01-13T20:26:15.611Z,79.23
2023-01-13T20:28:42.080Z,79.66
2023-01-13T20:31:10.987Z,80.12
2023-01-13T20:33:38.168Z,80.07
2023-01-13T20:36:05.602Z,80.52
2023-01-13T20:38:32.145Z,79.64
2023-01-13T20:40:59.143Z,79.96
2023-01-13T20:43:25.719Z,81.15
2023-01-13T20:45:52.386Z,80.88
2023-01-13T20:48:20.571Z,81.04
2023-01-13T20:50:52.108Z,82.26
2023-01-13T20:53:18.592Z,81.40
2023-01-13T20:55:45.048Z,81.38
2023-01-13T20:58:11.528Z,80.52
2023-01-13T21:00:38.090Z,81.44
2023-01-13T21:03:04.600Z,81.88
2023-01-13T21:05:35.535Z,81.36
2023-01-13T21:08:02.044Z,80.47
2023-01-13T21:10:28.483Z,81.09
2023-01-13T21:12:55.025Z,81.79
2023-01-13T21:15:21.795Z,81.08
2023-01-13T21:17:51.064Z,82.04
2023-01-13T21:20:17.396Z,81.40
2023-01-13T21:22:46.069Z,80.65
2023-01-13T21:25:13.348Z,81.64
2023-01-13T21:27:40.068Z,82.11
2023-01-13T21:30:08.041Z,81.40
2023-01-13T21:32:34.527Z,81.28
2023-01-13T21:35:00.979Z,81.33
2023-01-13T21:37:27.799Z,80.94
2023-01-13T21:39:55.603Z,82.17
2023-01-13T21:42:22.166Z,80.74
2023-01-13T21:44:48.669Z,82.09
2023-01-13T21:47:16.617Z,81.62
2023-01-13T21:49:43.228Z,80.96
2023-01-13T21:52:10.296Z,80.68
2023-01-13T21:54:36.816Z,81.20
2023-01-13T21:57:04.640Z,81.55
2023-01-13T21:59:31.072Z,82.21
2023-01-13T22:02:23.479Z,82.73
2023-01-13T22:04:44.007Z,82.16
2023-01-13T22:07:10.495Z,82.49
2023-01-13T22:09:37.023Z,81.07
2023-01-13T22:12:05.385Z,82.29
2023-01-13T22:14:32.569Z,82.37
2023-01-13T22:16:59.044Z,82.74
2023-01-13T22:19:25.512Z,81.25
2023-01-13T22:21:51.944Z,81.74
2023-01-13T22:24:18.441Z,82.42
2023-01-13T22:26:44.905Z,82.14
2023-01-13T22:29:12.781Z,81.11
2023-01-13T22:31:39.721Z,81.28
2023-01-13T22:34:06.193Z,81.17
2023-01-13T22:36:32.678Z,83.07
2023-01-13T22:38:59.184Z,81.81
2023-01-13T22:41:25.934Z,81.83
2023-01-13T22:43:52.645Z,81.86
2023-01-13T22:46:20.470Z,81.39
2023-01-13T22:48:47.333Z,82.65
2023-01-13T22:51:15.923Z,82.00
2023-01-13T22:53:43.601Z,82.68
2023-01-13T22:56:16.301Z,81.41
2023-01-13T22:58:43.239Z,81.73
2023-01-13T23:01:10.987Z,81.44
2023-01-13T23:03:39.231Z,83.34
2023-01-13T23:06:06.002Z,82.38
2023-01-13T23:08:33.170Z,82.89
2023-01-13T23:11:01.255Z,83.30
2023-01-13T23:13:27.855Z,83.13
2023-01-13T23:15:54.353Z,83.45
2023-01-13T23:18:20.921Z,82.16
2023-01-13T23:20:48.750Z,82.46
2023-01-13T23:23:15.213Z,82.49
2023-01-13T23:25:49.027Z,82.05
2023-01-13T23:28:15.612Z,83.22
2023-01-13T23:30:42.128Z,83.60
2023-01-13T23:33:08.591Z,82.57
2023-01-13T23:35:35.015Z,83.23
2023-01-13T23:38:02.862Z,82.85
2023-01-13T23:40:29.318Z,83.53
2023-01-13T23:42:55.773Z,82.51
2023-01-13T23:45:22.261Z,83.41
2023-01-13T23:47:48.760Z,82.36
2023-01-13T23:50:15.842Z,83.09
2023-01-13T23:52:42.453Z,83.29
2023-01-13T23:55:10.447Z,82.63
2023-01-13T23:57:36.903Z,82.69
